createdAt,value
2022-10-18T00:01:13.605Z,101245.84
2022-10-18T00:04:02.052Z,101251.78
2022-10-18T00:06:50.555Z,101249.72
2022-10-18T00:09:39.337Z,101266.63
2022-10-18T00:12:28.282Z,101269.50
2022-10-18T00:15:16.825Z,101267.47
2022-10-18T00:18:09.214Z,101271.16
2022-10-18T00:21:00.630Z,101268.25
2022-10-18T00:23:51.116Z,101270.31
2022-10-18T00:26:42.338Z,101266.19
2022-10-18T00:29:30.886Z,101271.28
2022-10-18T00:32:19.697Z,101266.81
2022-10-18T00:35:10.757Z,101278.56
2022-10-18T00:37:59.318Z,101270.25
2022-10-18T00:40:47.999Z,101266.13
2022-10-18T00:43:52.602Z,101263.25
2022-10-18T00:46:43.910Z,101269.38
2022-10-18T00:49:35.937Z,101257.00
2022-10-18T00:52:29.066Z,101256.53
2022-10-18T00:55:17.761Z,101269.75
2022-10-18T00:58:07.088Z,101264.75
2022-10-18T01:00:55.602Z,101255.63
2022-10-18T01:03:45.271Z,101256.00
2022-10-18T01:06:34.165Z,101251.84
2022-10-18T01:09:30.235Z,101260.53
2022-10-18T01:12:23.799Z,101267.66
2022-10-18T01:15:17.483Z,101258.97
2022-10-18T01:18:12.529Z,101263.31
2022-10-18T01:21:15.025Z,101269.47
2022-10-18T01:24:44.983Z,101264.72
2022-10-18T01:27:54.927Z,101269.06
2022-10-18T01:30:48.813Z,101261.19
2022-10-18T01:33:40.475Z,101263.41
2022-10-18T01:36:32.231Z,101263.25
2022-10-18T01:39:24.058Z,101259.09
2022-10-18T01:42:14.194Z,101258.69
2022-10-18T01:45:04.016Z,101260.50
2022-10-18T01:47:54.156Z,101271.00
2022-10-18T01:50:42.654Z,101273.88
2022-10-18T01:53:33.955Z,101275.91
2022-10-18T01:56:37.160Z,101267.59
2022-10-18T01:59:38.480Z,101271.94
2022-10-18T02:02:38.676Z,101267.13
2022-10-18T02:05:33.633Z,101272.13
2022-10-18T02:08:27.691Z,101269.25
2022-10-18T02:11:18.076Z,101272.56
2022-10-18T02:14:09.768Z,101269.25
2022-10-18T02:17:00.954Z,101258.53
2022-10-18T02:19:51.916Z,101270.03
2022-10-18T02:22:42.902Z,101269.38
2022-10-18T02:25:33.052Z,101268.78
2022-10-18T02:31:15.828Z,101270.38
2022-10-18T02:34:08.293Z,101272.41
2022-10-18T02:36:59.687Z,101274.66
2022-10-18T02:39:51.111Z,101283.13
2022-10-18T02:42:41.256Z,101278.41
2022-10-18T02:45:30.018Z,101281.06
2022-10-18T02:48:18.749Z,101271.38
2022-10-18T02:51:07.611Z,101272.41
2022-10-18T02:53:56.145Z,101281.47
2022-10-18T02:56:48.818Z,101276.09
2022-10-18T02:59:37.355Z,101270.97
2022-10-18T03:02:26.692Z,101277.34
2022-10-18T03:05:16.691Z,101271.78
2022-10-18T03:08:06.921Z,101283.50
2022-10-18T03:10:55.830Z,101282.88
2022-10-18T03:13:46.546Z,101282.22
2022-10-18T03:16:35.296Z,101292.56
2022-10-18T03:19:24.117Z,101284.25
2022-10-18T03:22:12.765Z,101291.63
2022-10-18T03:25:01.324Z,101280.28
2022-10-18T03:27:50.127Z,101284.91
2022-10-18T03:30:40.312Z,101290.59
2022-10-18T03:33:29.035Z,101287.91
2022-10-18T03:36:20.182Z,101291.63
2022-10-18T03:39:09.403Z,101293.66
2022-10-18T03:41:58.045Z,101284.59
2022-10-18T03:44:46.707Z,101285.44
2022-10-18T03:47:36.746Z,101282.31
2022-10-18T03:50:25.746Z,101283.31
2022-10-18T03:53:14.667Z,101281.50
2022-10-18T03:56:03.487Z,101280.81
2022-10-18T03:58:52.154Z,101284.34
2022-10-18T04:01:40.943Z,101280.38
2022-10-18T04:04:31.386Z,101277.72
2022-10-18T04:07:20.642Z,101282.88
2022-10-18T04:10:10.294Z,101282.03
2022-10-18T04:12:59.043Z,101279.38
2022-10-18T04:15:47.727Z,101274.66
2022-10-18T04:18:36.400Z,101281.66
2022-10-18T04:21:26.515Z,101277.97
2022-10-18T04:24:15.244Z,101278.63
2022-10-18T04:27:04.177Z,101281.19
2022-10-18T04:29:53.226Z,101289.31
2022-10-18T04:32:41.843Z,101282.78
2022-10-18T04:35:30.522Z,101275.22
2022-10-18T04:38:20.895Z,101281.66
2022-10-18T04:41:12.523Z,101287.06
2022-10-18T04:44:01.806Z,101288.63
2022-10-18T04:46:50.437Z,101285.31
2022-10-18T04:49:39.187Z,101290.75
2022-10-18T04:52:28.044Z,101286.25
2022-10-18T04:55:18.538Z,101285.50
2022-10-18T04:58:08.059Z,101293.25
2022-10-18T05:00:56.736Z,101295.56
2022-10-18T05:03:45.397Z,101290.84
2022-10-18T05:06:34.104Z,101281.84
2022-10-18T05:09:24.901Z,101280.81
2022-10-18T05:12:15.432Z,101279.41
2022-10-18T05:15:04.109Z,101271.47
2022-10-18T05:17:52.653Z,101269.81
2022-10-18T05:20:41.432Z,101271.84
2022-10-18T05:23:30.281Z,101274.78
2022-10-18T05:26:19.208Z,101272.97
2022-10-18T05:29:09.533Z,101270.94
2022-10-18T05:31:58.405Z,101267.78
2022-10-18T05:34:47.672Z,101272.31
2022-10-18T05:37:36.509Z,101269.09
2022-10-18T05:40:26.285Z,101276.09
2022-10-18T05:43:15.152Z,101265.78
2022-10-18T05:46:11.799Z,101268.63
2022-10-18T05:49:03.824Z,101263.44
2022-10-18T05:51:52.604Z,101262.25
2022-10-18T05:54:42.283Z,101256.75
2022-10-18T05:57:31.226Z,101251.38
2022-10-18T06:00:20.265Z,101239.38
2022-10-18T06:03:10.554Z,101226.63
2022-10-18T06:06:02.289Z,101210.25
2022-10-18T06:08:51.676Z,101214.28
2022-10-18T06:11:41.815Z,101224.16
2022-10-18T06:14:32.825Z,101236.63
2022-10-18T06:17:46.251Z,101237.47
2022-10-18T06:20:37.388Z,101238.28
2022-10-18T06:23:26.316Z,101236.16
2022-10-18T06:26:16.234Z,101230.34
2022-10-18T06:29:05.141Z,101236.69
2022-10-18T06:31:54.027Z,101215.69
2022-10-18T06:34:42.611Z,101220.00
2022-10-18T06:37:33.015Z,101220.00
2022-10-18T06:40:22.118Z,101236.59
2022-10-18T06:43:20.609Z,101247.13
2022-10-18T06:46:10.261Z,101249.34
2022-10-18T06:49:01.397Z,101251.00
2022-10-18T06:51:49.995Z,101256.91
2022-10-18T06:54:40.279Z,101259.13
2022-10-18T06:57:28.964Z,101255.09
2022-10-18T07:00:17.708Z,101246.38
2022-10-18T07:03:08.718Z,101247.59
2022-10-18T07:06:02.663Z,101245.75
2022-10-18T07:08:52.857Z,101241.41
2022-10-18T07:11:45.413Z,101239.38
2022-10-18T07:14:34.461Z,101240.69
2022-10-18T07:17:23.754Z,101237.06
2022-10-18T07:20:12.814Z,101245.09
2022-10-18T07:23:01.535Z,101246.75
2022-10-18T07:25:50.330Z,101250.06
2022-10-18T07:28:40.295Z,101250.72
2022-10-18T07:31:29.908Z,101255.00
2022-10-18T07:34:18.536Z,101247.41
2022-10-18T07:37:07.456Z,101237.72
2022-10-18T07:39:58.693Z,101236.06
2022-10-18T07:42:47.422Z,101238.72
2022-10-18T07:48:26.423Z,101241.41
2022-10-18T07:51:15.777Z,101237.72
2022-10-18T07:54:06.519Z,101242.44
2022-10-18T07:56:55.412Z,101241.03
2022-10-18T07:59:46.539Z,101249.25
2022-10-18T08:02:36.992Z,101237.06
2022-10-18T08:05:27.961Z,101230.53
2022-10-18T08:08:16.628Z,101225.81
2022-10-18T08:11:05.812Z,101243.06
2022-10-18T08:13:55.915Z,101243.44
2022-10-18T08:16:44.925Z,101237.06
2022-10-18T08:19:35.746Z,101239.75
2022-10-18T08:22:24.541Z,101220.38
2022-10-18T08:25:13.228Z,101209.69
2022-10-18T08:28:05.389Z,101208.66
2022-10-18T08:30:54.194Z,101197.97
2022-10-18T08:33:42.916Z,101185.44
2022-10-18T08:36:33.802Z,101188.53
2022-10-18T08:39:22.877Z,101177.97
2022-10-18T08:42:20.636Z,101172.25
2022-10-18T08:45:30.117Z,101165.03
2022-10-18T08:48:34.600Z,101172.63
2022-10-18T08:51:26.861Z,101169.38
2022-10-18T08:54:20.811Z,101172.69
2022-10-18T08:57:15.102Z,101173.63
2022-10-18T09:00:05.339Z,101167.25
2022-10-18T09:03:04.789Z,101171.78
2022-10-18T09:05:58.505Z,101168.91
2022-10-18T09:09:04.027Z,101172.78
2022-10-18T09:12:02.211Z,101154.16
2022-10-18T09:15:07.056Z,101150.19
2022-10-18T09:18:04.778Z,101155.34
2022-10-18T09:20:57.992Z,101154.31
2022-10-18T09:23:49.459Z,101149.19
2022-10-18T09:26:43.770Z,101148.97
2022-10-18T09:29:47.026Z,101135.16
2022-10-18T09:32:43.105Z,101131.09
2022-10-18T09:35:35.793Z,101127.78
2022-10-18T09:38:26.458Z,101127.78
2022-10-18T09:41:18.682Z,101126.59
2022-10-18T09:44:14.107Z,101116.88
2022-10-18T09:47:13.379Z,101111.72
2022-10-18T09:50:11.074Z,101114.03
2022-10-18T09:53:06.523Z,101108.03
2022-10-18T09:56:01.975Z,101107.47
2022-10-18T09:58:52.200Z,101103.16
2022-10-18T10:01:41.081Z,101104.16
2022-10-18T10:04:31.231Z,101094.91
2022-10-18T10:07:21.717Z,101082.94
2022-10-18T10:10:16.259Z,101091.16
2022-10-18T10:13:07.996Z,101089.56
2022-10-18T10:15:57.810Z,101088.28
2022-10-18T10:18:46.282Z,101083.00
2022-10-18T10:21:36.181Z,101093.25
2022-10-18T10:24:34.902Z,101097.78
2022-10-18T10:27:33.403Z,101116.31
2022-10-18T10:30:27.900Z,101142.34
2022-10-18T10:33:34.238Z,101146.03
2022-10-18T10:36:23.468Z,101147.41
2022-10-18T10:39:18.871Z,101153.41
2022-10-18T10:42:09.373Z,101171.13
2022-10-18T10:45:00.379Z,101160.97
2022-10-18T10:47:49.589Z,101189.56
2022-10-18T10:51:00.467Z,101232.38
2022-10-18T10:53:52.494Z,101211.34
2022-10-18T10:56:54.930Z,101203.97
2022-10-18T10:59:46.184Z,101194.00
2022-10-18T11:02:37.078Z,101194.81
2022-10-18T11:05:29.233Z,101191.97
2022-10-18T11:08:23.920Z,101196.94
2022-10-18T11:11:23.043Z,101176.94
2022-10-18T11:14:25.698Z,101177.59
2022-10-18T11:17:24.302Z,101189.94
2022-10-18T11:20:18.496Z,101183.31
2022-10-18T11:23:11.424Z,101197.31
2022-10-18T11:26:23.327Z,101186.88
2022-10-18T11:29:27.041Z,101204.34
2022-10-18T11:32:20.741Z,101212.19
2022-10-18T11:35:29.167Z,101206.00
2022-10-18T11:38:26.593Z,101214.66
2022-10-18T11:41:32.048Z,101206.00
2022-10-18T11:44:28.606Z,101206.63
2022-10-18T11:47:21.401Z,101216.69
2022-10-18T11:50:18.452Z,101203.31
2022-10-18T11:53:14.302Z,101215.84
2022-10-18T11:56:08.593Z,101219.19
2022-10-18T11:59:12.244Z,101230.63
2022-10-18T12:02:18.441Z,101225.75
2022-10-18T12:05:23.194Z,101227.41
2022-10-18T12:08:16.250Z,101231.72
2022-10-18T12:11:11.201Z,101241.41
2022-10-18T12:14:02.259Z,101234.41
2022-10-18T12:17:07.624Z,101238.94
2022-10-18T12:20:09.489Z,101232.56
2022-10-18T12:23:02.106Z,101236.91
2022-10-18T12:25:54.783Z,101246.38
2022-10-18T12:28:52.546Z,101242.69
2022-10-18T12:31:44.233Z,101241.22
2022-10-18T12:34:36.905Z,101244.56
2022-10-18T12:38:00.703Z,101247.22
2022-10-18T12:40:51.466Z,101254.69
2022-10-18T12:43:40.773Z,101247.69
2022-10-18T12:46:46.697Z,101234.50
2022-10-18T12:49:39.139Z,101235.69
2022-10-18T12:52:33.874Z,101235.34
2022-10-18T12:55:36.883Z,101238.66
2022-10-18T12:58:29.809Z,101245.38
2022-10-18T13:01:18.662Z,101250.16
2022-10-18T13:04:35.424Z,101257.94
2022-10-18T13:08:04.528Z,101255.44
2022-10-18T13:11:31.513Z,101256.75
2022-10-18T13:14:30.026Z,101253.38
2022-10-18T13:17:26.678Z,101253.94
2022-10-18T13:20:26.694Z,101259.41
2022-10-18T13:23:45.315Z,101266.03
2022-10-18T13:26:43.962Z,101267.31
2022-10-18T13:29:49.253Z,101263.00
2022-10-18T13:32:49.332Z,101266.81
2022-10-18T13:35:46.754Z,101268.00
2022-10-18T13:38:41.497Z,101269.31
2022-10-18T13:41:34.487Z,101264.59
2022-10-18T13:44:30.630Z,101268.28
2022-10-18T13:47:37.798Z,101274.75
2022-10-18T13:50:35.118Z,101262.28
2022-10-18T13:53:42.490Z,101254.16
2022-10-18T13:56:58.743Z,101248.78
2022-10-18T14:00:13.674Z,101252.41
2022-10-18T14:03:37.916Z,101250.00
2022-10-18T14:06:29.122Z,101248.16
2022-10-18T14:09:26.027Z,101243.06
2022-10-18T14:12:33.124Z,101240.31
2022-10-18T14:15:27.538Z,101240.56
2022-10-18T14:18:19.360Z,101246.28
2022-10-18T14:21:15.259Z,101247.78
2022-10-18T14:24:11.974Z,101253.31
2022-10-18T14:27:19.833Z,101250.75
2022-10-18T14:30:11.758Z,101249.09
2022-10-18T14:33:02.599Z,101268.94
2022-10-18T14:36:00.349Z,101256.56
2022-10-18T14:38:51.143Z,101257.97
2022-10-18T14:41:50.188Z,101271.66
2022-10-18T14:44:40.099Z,101284.41
2022-10-18T14:47:33.943Z,101282.38
2022-10-18T14:50:30.412Z,101277.38
2022-10-18T14:53:22.232Z,101284.41
2022-10-18T14:56:23.825Z,101285.81
2022-10-18T14:59:16.705Z,101285.75
2022-10-18T15:02:11.443Z,101279.00
2022-10-18T15:05:02.445Z,101275.84
2022-10-18T15:07:53.584Z,101282.38
2022-10-18T15:10:43.252Z,101277.84
2022-10-18T15:13:33.154Z,101276.50
2022-10-18T15:16:22.950Z,101273.81
2022-10-18T15:19:31.731Z,101276.31
2022-10-18T15:22:31.854Z,101268.47
2022-10-18T15:25:31.569Z,101275.69
2022-10-18T15:28:31.912Z,101270.31
2022-10-18T15:31:28.754Z,101278.69
2022-10-18T15:34:21.271Z,101279.03
2022-10-18T15:37:27.907Z,101277.72
2022-10-18T15:40:40.742Z,101287.72
2022-10-18T15:43:37.025Z,101292.38
2022-10-18T15:46:33.675Z,101290.72
2022-10-18T15:49:52.417Z,101291.91
2022-10-18T15:52:44.053Z,101294.03
2022-10-18T15:55:54.035Z,101300.41
2022-10-18T15:58:44.210Z,101297.06
2022-10-18T16:01:37.974Z,101311.09
2022-10-18T16:04:28.647Z,101301.13
2022-10-18T16:07:17.394Z,101297.53
2022-10-18T16:10:14.340Z,101304.91
2022-10-18T16:13:04.657Z,101311.47
2022-10-18T16:15:55.746Z,101310.19
2022-10-18T16:18:44.642Z,101316.16
2022-10-18T16:21:36.610Z,101311.28
2022-10-18T16:24:25.823Z,101313.88
2022-10-18T16:27:14.459Z,101315.63
2022-10-18T16:30:10.641Z,101323.34
2022-10-18T16:32:59.463Z,101323.09
2022-10-18T16:35:48.155Z,101321.63
2022-10-18T16:38:38.685Z,101332.97
2022-10-18T16:41:27.382Z,101323.56
2022-10-18T16:44:18.190Z,101327.13
2022-10-18T16:47:09.146Z,101332.22
2022-10-18T16:49:59.115Z,101331.59
2022-10-18T16:52:49.367Z,101328.16
2022-10-18T16:55:38.630Z,101332.88
2022-10-18T16:58:28.717Z,101331.84
2022-10-18T17:01:19.044Z,101323.66
2022-10-18T17:04:09.191Z,101330.50
2022-10-18T17:06:59.345Z,101339.41
2022-10-18T17:09:47.753Z,101331.28
2022-10-18T17:12:36.177Z,101335.00
2022-10-18T17:15:24.642Z,101335.53
2022-10-18T17:18:14.390Z,101341.16
2022-10-18T17:21:04.188Z,101344.31
2022-10-18T17:23:52.645Z,101340.69
2022-10-18T17:26:51.297Z,101346.44
2022-10-18T17:29:41.007Z,101352.16
2022-10-18T17:32:29.414Z,101344.38
2022-10-18T17:35:20.045Z,101347.31
2022-10-18T17:38:09.816Z,101350.56
2022-10-18T17:40:58.266Z,101334.94
2022-10-18T17:43:47.966Z,101341.06
2022-10-18T17:46:36.403Z,101338.13
2022-10-18T17:49:24.880Z,101336.06
2022-10-18T17:52:13.279Z,101341.56
2022-10-18T17:55:03.256Z,101345.81
2022-10-18T17:57:53.221Z,101353.69
2022-10-18T18:00:42.850Z,101350.34
2022-10-18T18:03:31.399Z,101357.06
2022-10-18T18:06:21.661Z,101348.56
2022-10-18T18:09:12.533Z,101339.88
2022-10-18T18:12:02.914Z,101345.94
2022-10-18T18:14:51.692Z,101350.88
2022-10-18T18:17:56.795Z,101350.03
2022-10-18T18:20:55.017Z,101341.75
2022-10-18T18:23:44.307Z,101352.56
2022-10-18T18:26:33.633Z,101341.22
2022-10-18T18:29:25.509Z,101342.03
2022-10-18T18:32:14.107Z,101340.22
2022-10-18T18:35:02.763Z,101347.38
2022-10-18T18:37:51.768Z,101352.50
2022-10-18T18:40:40.284Z,101352.50
2022-10-18T18:43:28.829Z,101341.88
2022-10-18T18:46:18.983Z,101354.03
2022-10-18T18:49:08.603Z,101364.59
2022-10-18T18:51:57.308Z,101351.34
2022-10-18T18:54:47.202Z,101347.34
2022-10-18T18:57:36.021Z,101346.00
2022-10-18T19:00:24.603Z,101354.28
2022-10-18T19:03:14.413Z,101337.94
2022-10-18T19:06:07.135Z,101341.03
2022-10-18T19:09:00.612Z,101341.25
2022-10-18T19:11:50.326Z,101348.78
2022-10-18T19:14:38.760Z,101354.72
2022-10-18T19:17:28.340Z,101358.31
2022-10-18T19:20:18.655Z,101359.19
2022-10-18T19:23:07.089Z,101350.50
2022-10-18T19:25:55.544Z,101354.44
2022-10-18T19:28:44.009Z,101354.16
2022-10-18T19:31:33.490Z,101356.66
2022-10-18T19:34:23.085Z,101362.22
2022-10-18T19:37:13.081Z,101361.56
2022-10-18T19:40:01.497Z,101359.84
2022-10-18T19:42:49.968Z,101361.06
2022-10-18T19:45:38.472Z,101362.31
2022-10-18T19:48:26.884Z,101366.88
2022-10-18T19:51:19.510Z,101373.72
2022-10-18T19:54:14.101Z,101377.91
2022-10-18T19:57:02.595Z,101369.50
2022-10-18T19:59:51.013Z,101361.44
2022-10-18T20:02:39.553Z,101359.00
2022-10-18T20:05:28.358Z,101366.59
2022-10-18T20:08:16.763Z,101378.69
2022-10-18T20:11:08.556Z,101373.81
2022-10-18T20:13:57.865Z,101373.03
2022-10-18T20:16:46.255Z,101363.22
2022-10-18T20:19:34.657Z,101367.84
2022-10-18T20:22:23.068Z,101365.63
2022-10-18T20:25:11.457Z,101377.28
2022-10-18T20:28:01.330Z,101369.50
2022-10-18T20:30:49.733Z,101359.19
2022-10-18T20:33:39.541Z,101362.22
2022-10-18T20:36:29.087Z,101362.72
2022-10-18T20:39:17.787Z,101366.81
2022-10-18T20:42:06.235Z,101365.97
2022-10-18T20:44:56.175Z,101368.31
2022-10-18T20:47:44.596Z,101378.56
2022-10-18T20:50:34.846Z,101373.13
2022-10-18T20:53:23.630Z,101383.72
2022-10-18T20:56:13.844Z,101375.69
2022-10-18T20:59:17.467Z,101377.81
2022-10-18T21:02:07.231Z,101377.75
2022-10-18T21:04:55.631Z,101379.31
2022-10-18T21:07:47.136Z,101375.88
2022-10-18T21:10:35.487Z,101376.44
2022-10-18T21:13:24.004Z,101377.47
2022-10-18T21:16:12.429Z,101374.53
2022-10-18T21:19:04.786Z,101375.25
2022-10-18T21:21:54.904Z,101377.28
2022-10-18T21:24:45.082Z,101363.59
2022-10-18T21:27:33.435Z,101376.34
2022-10-18T21:30:21.882Z,101375.34
2022-10-18T21:33:10.421Z,101364.38
2022-10-18T21:36:02.586Z,101372.78
2022-10-18T21:38:51.498Z,101374.13
2022-10-18T21:41:39.899Z,101384.84
2022-10-18T21:44:28.982Z,101377.81
2022-10-18T21:47:17.538Z,101376.16
2022-10-18T21:50:06.377Z,101379.88
2022-10-18T21:52:56.138Z,101381.16
2022-10-18T21:55:44.597Z,101377.81
2022-10-18T21:58:33.029Z,101382.91
2022-10-18T22:01:23.568Z,101390.09
2022-10-18T22:04:19.787Z,101387.25
2022-10-18T22:07:08.251Z,101386.88
2022-10-18T22:09:58.039Z,101387.25
2022-10-18T22:12:46.422Z,101375.69
2022-10-18T22:18:28.178Z,101364.34
2022-10-18T22:21:18.579Z,101362.88
2022-10-18T22:24:08.581Z,101362.53
2022-10-18T22:26:58.415Z,101360.00
2022-10-18T22:29:46.778Z,101376.25
2022-10-18T22:32:35.232Z,101368.59
2022-10-18T22:35:23.686Z,101370.63
2022-10-18T22:38:12.066Z,101373.78
2022-10-18T22:41:00.504Z,101369.22
2022-10-18T22:43:51.560Z,101363.25
2022-10-18T22:46:41.138Z,101363.53
2022-10-18T22:49:29.840Z,101361.03
2022-10-18T22:52:18.433Z,101361.56
2022-10-18T22:55:07.968Z,101355.59
2022-10-18T22:57:57.027Z,101366.94
2022-10-18T23:00:47.055Z,101360.75
2022-10-18T23:03:35.775Z,101366.94
2022-10-18T23:06:26.662Z,101366.94
2022-10-18T23:09:15.221Z,101363.13
2022-10-18T23:12:05.955Z,101359.44
2022-10-18T23:14:54.511Z,101361.56
2022-10-18T23:17:44.445Z,101367.84
2022-10-18T23:20:33.335Z,101370.88
2022-10-18T23:23:22.013Z,101378.69
2022-10-18T23:26:12.451Z,101366.03
2022-10-18T23:29:01.105Z,101372.06
2022-10-18T23:31:49.816Z,101378.44
2022-10-18T23:34:39.680Z,101381.28
2022-10-18T23:37:28.442Z,101385.16
2022-10-18T23:40:17.415Z,101370.13
2022-10-18T23:43:06.027Z,101376.13
2022-10-18T23:45:54.679Z,101374.09
2022-10-18T23:48:44.150Z,101377.78
2022-10-18T23:51:37.530Z,101376.13
2022-10-18T23:54:26.240Z,101380.81
2022-10-18T23:57:14.867Z,101375.16
